Time;durP1;ratioP1;P1;durP2;ratioP2;P2;SDS_P1;SDS_P2;PMS_P1;PMS_P2;Temp;Humidity;BMP_temperature;BMP_pressure;BME280_temperature;BME280_humidity;BME280_pressure;Samples;Min_cycle;Max_cycle;Signal;HPM_P1;HPM_P2
2024/03/30 00:01:04;;;;;;;;;;;;;;;3.52;100.00;97824.84;5029894;28;19925;-72
2024/03/30 00:03:29;;;;;;;;;;;;;;;3.53;100.00;97829.94;5029851;28;19936;-72
2024/03/30 00:06:02;;;;;;;;;;;;;;;3.47;100.00;97830.75;5013062;28;20311;-72
2024/03/30 00:08:27;;;;;;;;;;;;;;;3.41;100.00;97842.19;5029930;28;19923;-72
2024/03/30 00:11:02;;;;;;;;;;;;;;;3.38;100.00;97836.47;5013412;28;19917;-72
2024/03/30 00:13:28;;;;;;;;;;;;;;;3.36;100.00;97842.00;5029665;28;19913;-72
2024/03/30 00:15:54;;;;;;;;;;;;;;;3.39;100.00;97846.09;5013293;28;20000;-72
2024/03/30 00:18:19;;;;;;;;;;;;;;;3.36;100.00;97854.44;5013238;28;19940;-72
2024/03/30 00:20:45;;;;;;;;;;;;;;;3.22;100.00;97856.25;5012999;28;19913;-72
2024/03/30 00:23:11;;;;;;;;;;;;;;;3.00;100.00;97845.75;5013185;28;19917;-72
2024/03/30 00:25:36;;;;;;;;;;;;;;;2.82;100.00;97837.53;5012873;28;19968;-73
2024/03/30 00:28:02;;;;;;;;;;;;;;;2.62;100.00;97837.44;5013191;28;19913;-73
2024/03/30 00:30:36;;;;;;;;;;;;;;;2.42;100.00;97846.09;5029442;28;19957;-72
2024/03/30 00:33:02;;;;;;;;;;;;;;;2.35;100.00;97849.72;5012080;28;19914;-73
2024/03/30 00:35:28;;;;;;;;;;;;;;;2.32;100.00;97850.09;5013115;28;19924;-73
2024/03/30 00:37:54;;;;;;;285.05;108.95;;;;;;;2.22;100.00;97852.28;5029364;28;19921;-73
2024/03/30 00:40:21;;;;;;;594.05;467.55;;;;;;;2.09;100.00;97859.16;4996578;28;20129;-72
2024/03/30 00:42:47;;;;;;;704.67;592.08;;;;;;;2.02;100.00;97862.75;5012502;28;20172;-72
2024/03/30 00:45:13;;;;;;;681.97;565.72;;;;;;;1.92;100.00;97865.72;4996292;28;20034;-72
2024/03/30 00:47:39;;;;;;;;;;;;;;;1.85;100.00;97868.31;4996435;28;20036;-72
2024/03/30 00:50:05;;;;;;;;;;;;;;;1.82;100.00;97867.88;5029236;28;19909;-72
2024/03/30 00:52:31;;;;;;;;;;;;;;;1.70;100.00;97867.59;5013049;28;20344;-72
2024/03/30 00:54:56;;;;;;;;;;;;;;;1.60;100.00;97864.44;5012776;28;20000;-72
2024/03/30 00:57:22;;;;;;;;;;;;;;;1.54;100.00;97874.78;5012785;28;19929;-72
2024/03/30 00:59:47;;;;;;;;;;;;;;;1.40;100.00;97874.81;5012824;28;19910;-72
2024/03/30 01:02:13;;;;;;;;;;;;;;;1.22;100.00;97886.66;5029236;28;19924;-73
2024/03/30 01:04:38;;;;;;;;;;;;;;;1.07;100.00;97884.03;5012751;28;19913;-72
2024/03/30 01:07:04;;;;;;;;;;;;;;;0.97;100.00;97898.56;5012743;28;20020;-73
2024/03/30 01:09:29;;;;;;;;;;;;;;;0.90;100.00;97890.56;5012707;28;19913;-72
2024/03/30 01:11:55;;;;;;;;;;;;;;;0.79;100.00;97891.00;5012683;28;19913;-72
2024/03/30 01:14:22;;;;;;;;;;;;;;;0.70;100.00;97906.16;5012723;28;19914;-72
2024/03/30 01:16:48;;;;;;;;;;;;;;;0.73;100.00;97889.91;5012345;28;19913;-73
2024/03/30 01:19:14;;;;;;;;;;;;;;;0.73;100.00;97892.56;5028434;28;19917;-72
2024/03/30 01:21:42;;;;;;;;;;;;;;;0.69;100.00;97893.09;5029623;28;20341;-73
2024/03/30 01:24:08;;;;;;;;;;;;;;;0.75;100.00;97887.09;5044966;28;20407;-72
2024/03/30 01:26:34;;;;;;;;;;;;;;;0.88;100.00;97896.03;5012547;28;19917;-72
2024/03/30 01:29:00;;;;;;;;;;;;;;;0.93;100.00;97899.91;5012500;28;19964;-72
2024/03/30 01:31:26;;;;;;;;;;;;;;;0.94;100.00;97897.09;5012094;28;19992;-72
2024/03/30 01:33:52;;;;;;;;;;;;;;;0.88;100.00;97888.09;5031300;28;20015;-72
2024/03/30 01:36:17;;;;;;;;;;;;;;;0.85;100.00;97887.63;5048474;28;19980;-72
2024/03/30 01:38:43;;;;;;;;;;;;;;;0.70;100.00;97889.47;5015936;28;20012;-72
2024/03/30 01:41:09;;;;;;;;;;;;;;;0.58;100.00;97891.75;5032365;28;19913;-72
2024/03/30 01:43:35;;;;;;;;;;;;;;;0.49;100.00;97891.00;5048778;28;20354;-72
2024/03/30 01:46:00;;;;;;;;;;;;;;;0.38;100.00;97891.47;5015481;28;19913;-72
2024/03/30 01:48:26;;;;;;;;;;;;;;;0.31;100.00;97896.66;5015432;28;19959;-72
2024/03/30 01:50:51;;;;;;;;;;;;;;;0.26;100.00;97900.84;5015733;28;19913;-72
2024/03/30 01:53:20;;;;;;;;;;;;;;;0.23;100.00;97899.38;5048456;28;19913;-72
2024/03/30 01:55:48;;;;;;;;;;;;;;;0.27;100.00;97900.66;5032273;28;20375;-72
2024/03/30 01:58:15;;;;;;;;;;;;;;;0.38;100.00;97907.34;5031908;28;19944;-72
2024/03/30 02:00:41;;;;;;;;;;;;;;;0.42;100.00;97904.16;5015423;28;20295;-72
2024/03/30 02:03:06;;;;;;;;;;;;;;;0.40;100.00;97898.22;5015487;28;19913;-72
2024/03/30 02:05:32;;;;;;;;;;;;;;;0.40;100.00;97898.22;5031233;28;20020;-73
2024/03/30 02:08:01;;;;;;;;;;;;;;;0.36;100.00;97896.94;5031312;28;19913;-72
2024/03/30 02:10:27;;;;;;;;;;;;;;;0.28;100.00;97901.47;5015340;28;19917;-72
2024/03/30 02:12:52;;;;;;;;;;;;;;;0.26;100.00;97909.56;5015212;28;19913;-72
2024/03/30 02:15:18;;;;;;;;;;;;;;;0.28;100.00;97912.06;5015290;28;19921;-72
2024/03/30 02:17:43;;;;;;;;;;;;;;;0.41;100.00;97913.06;5015208;28;20252;-73
2024/03/30 02:20:09;;;;;;;;;;;;;;;0.70;100.00;97906.16;5015102;28;19913;-72
2024/03/30 02:22:34;;;;;;;;;;;;;;;0.99;100.00;97910.59;5014961;28;19964;-72
2024/03/30 02:25:03;;;;;;;;;;;;;;;1.17;100.00;97904.91;5014729;28;19922;-72
2024/03/30 02:27:30;;;;;;;;;;;;;;;1.31;100.00;97914.63;5015000;28;19918;-72
2024/03/30 02:29:58;;;;;;;;;;;;;;;1.42;100.00;97920.47;5031529;28;20356;-73
2024/03/30 02:32:24;;;;;;;;;;;;;;;1.49;100.00;97922.19;5014955;28;19917;-72
2024/03/30 02:34:49;;;;;;;;;;;;;;;1.67;100.00;97923.59;5014923;28;19936;-72
2024/03/30 02:37:15;;;;;;;;;;;;;;;1.70;100.00;97917.91;5030998;28;20283;-73
2024/03/30 02:39:40;;;;;;;;;;;;;;;1.79;100.00;97918.59;5031535;28;19913;-72
2024/03/30 02:42:06;;;;;;;;;;;;;;;1.82;100.00;97921.69;5014715;28;19920;-72
2024/03/30 02:44:31;;;;;;;;;;;;;;;1.81;100.00;97914.75;5014498;28;19918;-72
2024/03/30 02:46:57;;;;;;;;;;;;;;;1.86;100.00;97924.78;5014679;28;19988;-72
2024/03/30 02:49:22;;;;;;;;;;;;;;;1.96;100.00;97922.66;5031074;28;19964;-72
2024/03/30 02:51:48;;;;;;;;;;;;;;;1.91;100.00;97925.84;5014534;28;20039;-73
2024/03/30 02:54:14;;;;;;;;;;;;;;;1.85;100.00;97931.06;5014478;28;20283;-72
2024/03/30 02:56:40;;;;;;;;;;;;;;;1.79;100.00;97929.19;5030834;28;19976;-72
2024/03/30 02:59:05;;;;;;;;;;;;;;;1.71;100.00;97925.66;5014410;28;20383;-72
2024/03/30 03:01:31;;;;;;;;;;;;;;;1.64;100.00;97919.50;5014403;28;19914;-72
2024/03/30 03:03:56;;;;;;;;;;;;;;;1.56;100.00;97927.53;5014279;28;20419;-73
2024/03/30 03:06:21;;;;;;;;;;;;;;;1.47;100.00;97926.03;5013925;28;19992;-72
2024/03/30 03:08:47;;;;;;;;;;;;;;;1.44;100.00;97924.56;5014252;28;19936;-72
2024/03/30 03:11:13;;;;;;;;;;;;;;;1.34;100.00;97917.94;5014210;28;19993;-72
2024/03/30 03:13:40;;;;;;;;;;;;;;;1.29;100.00;97921.94;5030131;28;19913;-72
2024/03/30 03:16:06;;;;;;;;;;;;;;;1.14;100.00;97921.19;5030262;28;20024;-72
2024/03/30 03:18:31;;;;;;;;;;;;;;;1.07;100.00;97920.25;5013765;28;20374;-72
2024/03/30 03:20:57;;;;;;;;;;;;;;;1.02;100.00;97925.28;5014077;28;20374;-72
2024/03/30 03:23:25;;;;;;;;;;;;;;;1.06;100.00;97926.56;5013913;28;19972;-72
2024/03/30 03:25:51;;;;;;;;;;;;;;;1.10;100.00;97925.19;5029571;28;19921;-72
2024/03/30 03:28:16;;;;;;;;;;;;;;;1.26;100.00;97932.09;5030251;28;19913;-72
2024/03/30 03:30:42;;;;;;;;;;;;;;;1.26;100.00;97937.38;5030831;28;19968;-72
2024/03/30 03:33:07;;;;;;;;;;;;;;;1.31;100.00;97935.81;5013842;28;20391;-73
2024/03/30 03:35:33;;;;;;;;;;;;;;;1.31;100.00;97927.88;5030162;28;20303;-72
2024/03/30 03:37:58;;;;;;;;;;;;;;;1.28;100.00;97930.09;5013703;28;20051;-73
2024/03/30 03:40:24;;;;;;;;;;;;;;;1.29;100.00;97921.13;5046201;28;19918;-72
2024/03/30 03:42:49;;;;;;;;;;;;;;;1.38;100.00;97921.84;5013637;28;20367;-72
2024/03/30 03:45:15;;;;;;;;;;;;;;;1.48;100.00;97925.00;5029816;28;19917;-72
2024/03/30 03:47:40;;;;;;;;;;;;;;;1.64;100.00;97923.94;5013553;28;19913;-72
2024/03/30 03:50:06;;;;;;;;;;;;;;;1.72;100.00;97927.31;5029713;28;19914;-72
2024/03/30 03:52:31;;;;;;;;;;;;;;;1.78;100.00;97923.09;5046276;28;19943;-72
2024/03/30 03:54:57;;;;;;;;;;;;;;;1.87;100.00;97926.41;5013341;28;20398;-72
2024/03/30 03:57:22;;;;;;;;;;;;;;;1.89;100.00;97919.09;5013113;28;19956;-73
2024/03/30 03:59:49;;;;;;;;;;;;;;;1.88;100.00;97926.25;5046550;28;20271;-72
2024/03/30 04:02:15;;;;;;;;;;;;;;;1.94;100.00;97924.66;5014166;28;20344;-72
2024/03/30 04:04:43;;;;;;;;;;;;;;;1.95;100.00;97931.59;5029174;28;20399;-72
2024/03/30 04:07:12;;;;;;;;;;;;;;;2.01;100.00;97930.81;5029171;28;19913;-72
2024/03/30 04:09:37;;;;;;;;;;;;;;;2.07;100.00;97934.56;5012861;28;19939;-72
2024/03/30 04:12:03;;;;;;;;;;;;;;;2.09;100.00;97938.66;5045746;28;20269;-72
2024/03/30 04:14:28;;;;;;;;;;;;;;;2.09;100.00;97937.81;5029539;28;19920;-72
2024/03/30 04:16:54;;;;;;;;;;;;;;;2.06;100.00;97933.72;5030402;28;19963;-72
2024/03/30 04:19:19;;;;;;;;;;;;;;;2.05;100.00;97926.78;5029613;28;20275;-73
2024/03/30 04:21:45;;;;;;;;;;;;;;;2.02;100.00;97934.31;5012965;28;20004;-72
2024/03/30 04:24:11;;;;;;;;;;;;;;;1.94;100.00;97937.91;5013020;28;19923;-73
2024/03/30 04:26:37;;;;;;;;;;;;;;;1.92;100.00;97939.91;5029430;28;19925;-74
2024/03/30 04:29:03;;;;;;;;;;;;;;;1.88;100.00;97939.50;5013025;28;19920;-72
2024/03/30 04:31:28;;;;;;;;;;;;;;;1.89;100.00;97930.53;5029399;28;19913;-72
2024/03/30 04:33:54;;;;;;;;;;;;;;;1.80;100.00;97923.72;5029451;28;19918;-72
2024/03/30 04:36:19;;;;;;;;;;;;;;;1.84;100.00;97922.31;5012968;28;19913;-72
2024/03/30 04:38:45;;;;;;;;;;;;;;;1.82;100.00;97919.03;5012932;28;19913;-72
2024/03/30 04:41:12;;;;;;;;;;;;;;;1.78;100.00;97915.13;5029319;28;19936;-72
2024/03/30 04:43:38;;;;;;;;;;;;;;;1.70;100.00;97912.63;5029380;28;20268;-72
2024/03/30 04:46:09;;;;;;;;;;;;;;;1.68;100.00;97910.13;5012556;28;19918;-73
2024/03/30 04:48:35;;;;;;;;;;;;;;;1.56;100.00;97919.59;5012580;28;19913;-72
2024/03/30 04:51:01;;;;;;;;;;;;;;;1.50;100.00;97925.63;5012785;28;20242;-72
2024/03/30 04:53:32;;;;;;;;;;;;;;;1.50;100.00;97930.94;5012643;28;19914;-72
2024/03/30 04:55:58;;;;;;;;;;;;;;;1.49;100.00;97932.75;5012567;28;19976;-72
2024/03/30 04:58:24;;;;;;;;;;;;;;;1.48;100.00;97925.84;5028873;28;19917;-72
2024/03/30 05:00:50;;;;;;;;;;;;;;;1.61;100.00;97917.19;5012723;28;19913;-73
2024/03/30 05:03:16;;;;;;;;;;;;;;;1.81;100.00;97917.41;5012665;28;20047;-72
2024/03/30 05:05:42;;;;;;;;;;;;;;;2.01;100.00;97920.22;5028579;28;19913;-72
2024/03/30 05:08:09;;;;;;;;;;;;;;;2.05;100.00;97916.19;5046280;28;19999;-72
2024/03/30 05:10:34;;;;;;;;;;;;;;;2.01;100.00;97914.91;5032842;28;19964;-72
2024/03/30 05:13:00;;;;;;;;;;;;;;;1.92;100.00;97926.66;5016329;28;20545;-72
2024/03/30 05:15:25;;;;;;;;;;;;;;;1.85;100.00;97921.28;5032794;28;19972;-72
2024/03/30 05:17:51;;;;;;;;;;;;;;;1.89;100.00;97909.31;5016342;28;19918;-72
2024/03/30 05:23:00;;;;;;;;;;;;;;;2.30;100.00;97898.03;5030250;28;20016;-72
2024/03/30 05:25:26;;;;;;;;;;;;;;;2.39;100.00;97911.97;5032464;28;20004;-72
2024/03/30 05:27:51;;;;;;;;;;;;;;;2.40;100.00;97914.41;5016149;28;19913;-72
2024/03/30 05:30:18;;;;;;;;;;;;;;;2.36;100.00;97917.66;5033159;28;19921;-72
2024/03/30 05:32:49;;;;;;;;;;;;;;;2.32;100.00;97917.22;5015847;28;19913;-72
2024/03/30 05:35:14;;;;;;;;;;;;;;;2.27;100.00;97929.41;5016027;28;19967;-72
2024/03/30 05:37:40;;;;;;;;;;;;;;;2.08;100.00;97923.75;5016606;28;19952;-72
2024/03/30 05:40:05;;;;;;;;;;;;;;;1.91;100.00;97920.56;5015950;28;19964;-72
2024/03/30 05:42:31;;;;;;;;;;;;;;;1.73;100.00;97917.53;5016750;28;20005;-72
2024/03/30 05:44:56;;;;;;;;;;;;;;;1.58;100.00;97930.81;5032071;28;20370;-72
2024/03/30 05:47:23;;;;;;;;;;;;;;;1.45;100.00;97928.84;5032805;28;19918;-72
2024/03/30 05:49:48;;;;;;;;;;;;;;;1.35;100.00;97935.44;5032233;28;20371;-72
2024/03/30 05:52:14;;;;;;;;;;;;;;;1.34;100.00;97939.91;5015729;28;20020;-72
2024/03/30 05:54:39;;;;;;;;;;;;;;;1.37;100.00;97941.38;5015624;28;19980;-72
2024/03/30 05:57:05;;;;;;;;;;;;;;;1.35;100.00;97938.94;5032137;28;19921;-72
2024/03/30 05:59:30;;;;;;;;;;;;;;;1.44;100.00;97942.28;5015590;28;20382;-72
2024/03/30 06:01:56;;;;;;;;;;;;;;;1.46;100.00;97935.78;5015246;28;19913;-72
2024/03/30 06:04:24;;;;;;;;;;;;;;;1.48;100.00;97925.00;5015670;28;20241;-72
2024/03/30 06:06:50;;;;;;;;;;;;;;;1.64;100.00;97922.13;5031041;28;19913;-72
2024/03/30 06:09:15;;;;;;;;;;;;;;;1.85;100.00;97916.00;5015296;28;19917;-72
2024/03/30 06:11:42;;;;;;;;;;;;;;;2.03;100.00;97917.38;5031361;28;19924;-72
2024/03/30 06:14:07;;;;;;;;;;;;;;;2.16;100.00;97915.66;5015623;28;20015;-73
2024/03/30 06:16:33;;;;;;;;;;;;;;;2.33;100.00;97916.22;5031749;28;20019;-72
2024/03/30 06:18:58;;;;;;;;;;;;;;;2.43;100.00;97918.50;5014770;28;19921;-72
2024/03/30 06:21:24;;;;;;;;;;;;;;;2.58;100.00;97923.72;5031381;28;19966;-72
2024/03/30 06:23:49;;;;;;;;;;;;;;;2.73;100.00;97920.97;5015310;28;20279;-72
2024/03/30 06:26:15;;;;;;;;;;;;;;;2.79;100.00;97918.34;5047843;28;19920;-72
2024/03/30 06:28:40;;;;;;;;;;;;;;;2.88;100.00;97928.78;5047835;28;20004;-72
2024/03/30 06:31:06;;;;;;;;;;;;;;;2.87;100.00;97925.31;5015012;28;19948;-72
2024/03/30 06:33:32;;;;;;;;;;;;;;;2.86;100.00;97923.69;5047766;28;19936;-72
2024/03/30 06:35:57;;;;;;;;;;;;;;;2.90;100.00;97918.81;5014824;28;19964;-72
2024/03/30 06:38:23;;;;;;;;;;;;;;;2.95;100.00;97927.81;5014853;28;19917;-72
2024/03/30 06:43:41;;;;;;;;;;;;;;;3.19;100.00;97931.81;5029047;28;20028;-73
2024/03/30 06:46:07;;;;;;;;;;;;;;;3.35;100.00;97935.94;5029894;28;19917;-72
2024/03/30 06:48:33;;;;;;;;;;;;;;;3.62;100.00;97939.50;5014848;28;20257;-72
2024/03/30 06:50:58;;;;;;;;;;;;;;;3.87;100.00;97945.09;5014591;28;19921;-72
2024/03/30 06:53:24;;;;;;;;;;;;;;;4.16;100.00;97937.78;5014481;28;19917;-73
2024/03/30 06:55:52;;;;;;;;;;;;;;;4.54;100.00;97932.63;5030960;28;19913;-72
2024/03/30 06:58:18;;;;;;;;;;;;;;;5.14;100.00;97934.38;5014009;28;19946;-72
2024/03/30 07:00:44;;;;;;;;;;;;;;;5.14;100.00;97935.19;5030739;28;19967;-72
2024/03/30 07:03:09;;;;;;;;;;;;;;;5.12;100.00;97933.75;5014868;28;19921;-72
2024/03/30 07:05:35;;;;;;;;;;;;;;;5.28;100.00;97934.09;5013758;28;20406;-72
2024/03/30 07:08:01;;;;;;;;;;;;;;;5.22;100.00;97934.13;5030791;28;19913;-72
2024/03/30 07:10:26;;;;;;;;;;;;;;;5.31;100.00;97937.38;5014103;28;19913;-73
2024/03/30 07:12:54;;;;;;;;;;;;;;;5.48;100.00;97938.53;5014111;28;19979;-72
2024/03/30 07:15:23;;;;;;;;;;;;;;;5.67;100.00;97942.13;5030212;28;20364;-72
2024/03/30 07:17:48;;;;;;;;;;;;;;;6.00;100.00;97941.94;5030554;28;19914;-72
2024/03/30 07:20:14;;;;;;;;;;;;;;;5.91;100.00;97948.53;5014013;28;19939;-73
2024/03/30 07:22:39;;;;;;;;;;;;;;;5.71;100.00;97952.13;5013971;28;20400;-72
2024/03/30 07:25:08;;;;;;;;;;;;;;;5.81;100.00;97958.84;5030762;28;19968;-72
2024/03/30 07:27:33;;;;;;;;;;;;;;;5.89;100.00;97956.75;5013219;28;20389;-73
2024/03/30 07:29:59;;;;;;;;;;;;;;;6.47;100.00;97955.75;5013444;28;19917;-73
2024/03/30 07:32:25;;;;;;;;;;;;;;;7.56;100.00;97949.91;5013510;28;19921;-72
2024/03/30 07:34:50;;;;;;;145.07;23.42;;;;;;;8.08;100.00;97953.72;5029436;28;19920;-73
2024/03/30 07:37:17;;;;;;;82.85;63.08;;;;;;;8.79;100.00;97952.00;4996952;28;20033;-72
2024/03/30 07:39:43;;;;;;;3.20;1.02;;;;;;;8.94;100.00;97956.06;4997215;28;20037;-73
2024/03/30 07:42:09;;;;;;;3.47;1.20;;;;;;;8.74;100.00;97953.75;4997376;28;20033;-73
2024/03/30 07:44:38;;;;;;;2.15;0.98;;;;;;;8.48;100.00;97961.16;4997129;28;20049;-72
2024/03/30 07:47:05;;;;;;;517.88;480.05;;;;;;;7.94;100.00;97960.31;5013804;28;20505;-73
2024/03/30 07:49:31;;;;;;;11.45;2.75;;;;;;;7.27;100.00;97955.78;4997465;28;20103;-72
2024/03/30 07:51:57;;;;;;;5.30;1.75;;;;;;;6.89;100.00;97958.66;4996846;28;20029;-73
2024/03/30 07:54:23;;;;;;;3.50;1.10;;;;;;;8.01;100.00;97961.00;4996685;28;20034;-73
2024/03/30 07:56:57;;;;;;;6.07;1.10;;;;;;;9.90;100.00;97967.16;4996935;28;20069;-73
2024/03/30 07:59:23;;;;;;;3.78;1.10;;;;;;;10.92;100.00;97963.50;4981108;28;20392;-72
2024/03/30 08:01:50;;;;;;;6.38;1.40;;;;;;;11.44;100.00;97960.47;4996893;28;20124;-73
2024/03/30 08:04:16;;;;;;;3.40;0.90;;;;;;;11.96;100.00;97961.09;4996688;28;20041;-72
2024/03/30 08:06:49;;;;;;;6.47;1.38;;;;;;;12.39;99.70;97965.56;5013148;28;20049;-73
2024/03/30 08:09:15;;;;;;;5.65;1.27;;;;;;;12.04;96.00;97963.31;5028965;28;20030;-73
2024/03/30 08:11:43;;;;;;;3.63;1.35;;;;;;;11.02;100.00;97957.47;4996620;28;20132;-73
2024/03/30 08:14:09;;;;;;;1.80;1.20;;;;;;;11.27;100.00;97962.38;4997416;28;20119;-73
2024/03/30 08:16:34;;;;;;;9.80;3.60;;;;;;;12.20;96.54;97967.81;5029300;28;20500;-72
2024/03/30 08:19:03;;;;;;;3.38;2.13;;;;;;;12.81;87.66;97969.38;4996626;28;20120;-73
2024/03/30 08:21:30;;;;;;;4.60;1.90;;;;;;;13.17;89.13;97965.03;4996504;28;20040;-73
2024/03/30 08:23:55;;;;;;;7.28;1.88;;;;;;;13.65;82.93;97973.94;4996494;28;20041;-73
2024/03/30 08:26:21;;;;;;;5.05;1.98;;;;;;;13.91;78.07;97964.03;5012655;28;20030;-73
2024/03/30 08:28:48;;;;;;;6.22;3.63;;;;;;;14.12;77.42;97972.22;5013429;28;20377;-73
2024/03/30 08:31:13;;;;;;;4.10;2.20;;;;;;;14.64;77.90;97969.34;5012450;28;20465;-73
2024/03/30 08:33:39;;;;;;;4.40;2.17;;;;;;;14.84;72.58;97964.97;5012374;28;20026;-73
2024/03/30 08:36:05;;;;;;;3.72;1.83;;;;;;;14.76;68.20;97966.34;5012735;28;20045;-73
2024/03/30 08:38:31;;;;;;;2.95;1.50;;;;;;;14.84;69.83;97982.03;4996417;28;20026;-73
2024/03/30 08:40:56;;;;;;;2.80;1.35;;;;;;;14.79;66.92;97975.81;4996743;28;20030;-73
2024/03/30 08:43:25;;;;;;;3.40;1.60;;;;;;;14.98;68.44;97976.91;4999952;28;20060;-73
2024/03/30 08:45:52;;;;;;;4.78;1.75;;;;;;;15.01;65.95;97970.94;5016524;28;20030;-73
2024/03/30 08:48:18;;;;;;;5.50;1.85;;;;;;;15.15;68.48;97957.63;5016383;28;20040;-73
2024/03/30 08:50:44;;;;;;;5.80;3.33;;;;;;;15.59;67.29;97960.50;5000852;28;20042;-73
2024/03/30 08:53:10;;;;;;;4.55;1.80;;;;;;;15.80;65.22;97966.66;5000218;28;20034;-73
2024/03/30 08:55:37;;;;;;;4.95;2.53;;;;;;;15.90;64.85;97981.25;5000060;28;20427;-73
2024/03/30 08:58:03;;;;;;;6.47;3.05;;;;;;;16.01;63.14;97970.09;5000246;28;20046;-72
2024/03/30 09:00:29;;;;;;;3.17;1.60;;;;;;;16.01;63.20;97972.78;5014463;28;20105;-73
2024/03/30 09:02:54;;;;;;;5.50;2.20;;;;;;;16.05;61.83;97973.84;4997986;28;20089;-73
2024/03/30 09:05:26;;;;;;;4.53;2.10;;;;;;;16.08;61.48;97971.66;4997983;28;20033;-73
2024/03/30 09:07:52;;;;;;;3.40;1.10;;;;;;;15.86;61.90;97963.94;5014340;28;20084;-73
2024/03/30 09:10:20;;;;;;;4.00;1.90;;;;;;;14.85;63.96;97970.13;4998113;28;20041;-73
2024/03/30 09:12:46;;;;;;;5.22;2.72;;;;;;;15.52;63.48;97964.56;4998192;28;20461;-73
2024/03/30 09:15:11;;;;;;;3.50;1.75;;;;;;;15.57;61.81;97959.94;5015584;28;20040;-73
2024/03/30 09:17:37;;;;;;;5.10;2.00;;;;;;;15.78;60.42;97965.31;4999835;28;20091;-73
2024/03/30 09:20:03;;;;;;;3.55;1.33;;;;;;;15.95;60.24;97964.97;5015679;28;20030;-73
2024/03/30 09:22:28;;;;;;;6.97;2.38;;;;;;;16.25;58.08;97964.78;4999734;28;20076;-73
2024/03/30 09:24:55;;;;;;;3.05;1.10;;;;;;;15.29;60.94;97972.22;4999590;28;20062;-73
2024/03/30 09:27:23;;;;;;;5.40;1.30;;;;;;;16.09;59.12;97965.16;4999419;28;20034;-73
2024/03/30 09:29:48;;;;;;;4.47;1.02;;;;;;;15.66;58.14;97962.88;5015920;28;20026;-73
2024/03/30 09:32:14;;;;;;;5.55;1.75;;;;;;;16.12;57.03;97962.69;4999287;28;20040;-73
2024/03/30 09:34:39;;;;;;;2.58;1.10;;;;;;;14.70;59.46;97970.94;4999820;28;20081;-72
2024/03/30 09:37:08;;;;;;;5.30;1.23;;;;;;;14.54;59.30;97976.63;5015223;28;20057;-72
2024/03/30 09:39:40;;;;;;;3.33;1.40;;;;;;;15.17;56.42;97972.53;4999863;28;20508;-73
2024/03/30 09:42:11;;;;;;;3.47;1.33;;;;;;;16.22;53.83;97968.06;4983609;28;20037;-73
2024/03/30 09:44:37;;;;;;;3.85;1.10;;;;;;;16.54;51.75;97972.19;4999203;28;20034;-73
2024/03/30 09:47:04;;;;;;;2.63;1.20;;;;;;;16.65;50.50;97979.16;5015663;28;20030;-73
2024/03/30 09:49:33;;;;;;;4.20;1.35;;;;;;;17.05;49.11;97976.41;5020346;28;20045;-73
2024/03/30 09:52:02;;;;;;;2.08;1.10;;;;;;;17.22;48.08;97975.94;5012152;28;20396;-73
2024/03/30 09:54:29;;;;;;;4.25;1.70;;;;;;;17.09;48.72;97980.16;5034607;28;20368;-75
2024/03/30 09:56:55;;;;;;;5.07;1.95;;;;;;;16.33;49.39;97981.56;5034948;28;20104;-75
2024/03/30 09:59:21;;;;;;;8.80;4.65;;;;;;;17.27;48.74;97984.03;5035159;28;20053;-76
2024/03/30 10:01:47;;;;;;;4.15;1.38;;;;;;;17.84;47.76;97982.34;5018525;28;20541;-75
2024/03/30 10:04:12;;;;;;;5.90;1.58;;;;;;;17.46;46.82;97981.41;5035040;28;20039;-76
2024/03/30 10:06:55;;;;;;;6.25;1.60;;;;;;;16.81;49.70;97987.19;5001974;28;20163;-76
2024/03/30 10:09:25;;;;;;;2.17;1.60;;;;;;;16.35;49.82;97984.78;5015647;28;20128;-76
2024/03/30 10:11:58;;;;;;;4.07;1.40;;;;;;;16.59;49.03;97991.13;5018307;28;20049;-75
2024/03/30 10:14:34;;;;;;;4.28;2.13;;;;;;;16.30;49.38;97991.06;5051184;28;20037;-76
2024/03/30 10:17:01;;;;;;;3.25;1.00;;;;;;;15.81;49.24;97997.28;5018373;28;20037;-75
2024/03/30 10:19:28;;;;;;;3.67;1.08;;;;;;;14.81;51.27;98000.69;5034775;28;20025;-75
2024/03/30 10:21:54;;;;;;;4.30;2.20;;;;;;;15.93;50.02;97995.06;5035650;28;20037;-76
2024/03/30 10:24:20;;;;;;;3.33;1.40;;;;;;;17.06;48.26;98000.53;5001575;28;20025;-75
2024/03/30 10:26:46;;;;;;;4.85;1.52;;;;;;;17.12;47.19;97999.41;5034502;28;20026;-75
2024/03/30 10:29:11;;;;;;;3.75;2.08;;;;;;;17.80;45.95;97997.59;5035508;28;20460;-75
2024/03/30 10:31:38;;;;;;;2.80;1.40;;;;;;;17.03;47.72;98003.81;5034308;28;20400;-76
2024/03/30 10:34:04;;;;;;;4.85;1.67;;;;;;;16.76;47.28;97990.72;5002709;28;20491;-75
2024/03/30 10:36:30;;;;;;;4.75;1.50;;;;;;;17.22;47.11;98011.25;5017996;28;20069;-76
2024/03/30 10:38:56;;;;;;;4.82;1.42;;;;;;;16.85;47.14;97999.91;5001661;28;20048;-76
2024/03/30 10:41:28;;;;;;;4.78;1.35;;;;;;;16.89;47.08;97983.88;5034422;28;20362;-75
2024/03/30 10:43:55;;;;;;;4.43;1.63;;;;;;;17.18;46.35;98002.88;5017857;28;20041;-75
2024/03/30 10:46:23;;;;;;;2.67;1.30;;;;;;;17.63;44.44;98002.69;5033834;28;20060;-76
2024/03/30 10:48:52;;;;;;;5.70;1.55;;;;;;;17.98;43.43;98010.44;5034359;28;20128;-76
2024/03/30 10:51:21;;;;;;;4.70;1.30;;;;;;;18.32;43.33;97992.31;5018505;28;20033;-75
2024/03/30 10:53:49;;;;;;;2.25;1.00;;;;;;;18.51;42.73;97989.59;5001423;28;20049;-76
2024/03/30 10:56:16;;;;;;;3.47;1.30;;;;;;;18.44;43.93;97995.38;5033720;28;20128;-75
2024/03/30 10:58:42;;;;;;;5.22;2.50;;;;;;;18.42;44.47;98001.13;5017638;28;20127;-76
2024/03/30 11:01:08;;;;;;;6.07;1.23;;;;;;;18.39;43.93;97992.75;5017439;28;20061;-75
2024/03/30 11:03:34;;;;;;;4.57;1.45;;;;;;;18.33;43.95;97989.28;5001267;28;20059;-76
2024/03/30 11:06:00;;;;;;;6.90;3.65;;;;;;;18.37;43.47;97994.97;4999836;28;20457;-75
2024/03/30 11:08:27;;;;;;;3.72;2.20;;;;;;;17.93;44.45;97996.91;5033941;28;20044;-75
2024/03/30 11:10:53;;;;;;;4.40;1.70;;;;;;;18.34;44.34;97990.13;5017228;28;20124;-76
2024/03/30 11:13:19;;;;;;;4.60;2.58;;;;;;;18.50;42.72;97998.84;5033872;28;20025;-76
2024/03/30 11:15:47;;;;;;;7.65;2.30;;;;;;;18.38;41.55;97993.84;5000960;28;20041;-76
2024/03/30 11:18:21;;;;;;;4.20;1.80;;;;;;;18.38;41.81;97997.38;5034489;28;20107;-76
2024/03/30 11:21:19;;;;;;;5.90;1.52;;;;;;;18.44;41.53;98007.09;5050112;28;20033;-76
2024/03/30 11:23:57;;;;;;;5.57;1.70;;;;;;;18.19;40.32;98004.72;5033495;28;20357;-76
2024/03/30 11:26:24;;;;;;;5.72;1.90;;;;;;;18.13;40.31;98004.00;5033057;28;20030;-75
2024/03/30 11:29:01;;;;;;;2.63;1.15;;;;;;;17.87;41.44;97998.06;5001621;28;20041;-76
2024/03/30 11:31:36;;;;;;;5.18;1.80;;;;;;;18.07;42.00;98015.22;5016711;28;20040;-75
2024/03/30 11:34:06;;;;;;;3.03;1.45;;;;;;;18.97;39.96;98013.38;5033188;28;20431;-76
2024/03/30 11:36:50;;;;;;;6.70;1.80;;;;;;;18.96;38.90;98023.47;5016590;28;20037;-76
2024/03/30 11:39:29;;;;;;;2.42;1.10;;;;;;;17.35;41.80;98013.28;5017388;28;20037;-76
2024/03/30 11:42:14;;;;;;;3.53;1.20;;;;;;;16.57;43.91;98009.59;5033214;28;20029;-75
2024/03/30 11:44:40;;;;;;;2.55;1.20;;;;;;;17.05;43.29;98015.22;5018413;28;20033;-76
2024/03/30 11:47:05;;;;;;;3.15;1.23;;;;;;;18.19;42.55;98012.88;5033122;28;20514;-76
2024/03/30 11:49:31;;;;;;;4.38;1.38;;;;;;;18.41;41.00;98013.09;5017141;28;20032;-75
2024/03/30 11:51:58;;;;;;;5.75;1.20;;;;;;;18.76;40.11;98018.34;5016492;28;20037;-76
2024/03/30 11:57:12;;;;;;;2.97;1.58;;;;;;;17.84;40.89;98019.59;5066646;28;20377;-75
2024/03/30 11:59:40;;;;;;;3.90;1.30;;;;;;;18.48;40.63;98020.91;5044969;28;20099;-75
2024/03/30 12:02:10;;;;;;;4.57;1.23;;;;;;;16.92;41.57;98015.88;5016928;28;20021;-74
2024/03/30 12:04:38;;;;;;;3.80;1.60;;;;;;;16.45;43.00;98023.50;5048676;28;20021;-75
2024/03/30 12:07:08;;;;;;;4.10;1.02;;;;;;;16.75;41.85;98018.13;5067775;28;20041;-75
2024/03/30 12:09:35;;;;;;;4.97;1.30;;;;;;;16.79;42.11;98011.88;5049239;28;20478;-75
2024/03/30 12:12:13;;;;;;;4.85;2.08;;;;;;;16.08;43.61;98031.28;5034422;28;20420;-75
2024/03/30 12:14:42;;;;;;;6.45;1.83;;;;;;;15.23;46.35;98037.47;5060601;28;20021;-75
2024/03/30 12:17:08;;;;;;;2.70;1.30;;;;;;;15.59;45.99;98032.81;5049269;28;20554;-74
2024/03/30 12:19:34;;;;;;;4.43;1.55;;;;;;;16.27;45.85;98029.56;5030082;28;20123;-75